createdAt,value
2023-06-10T00:01:37.650Z,3.63
2023-06-10T00:04:08.606Z,3.72
2023-06-10T00:06:37.590Z,3.30
2023-06-10T00:09:06.972Z,3.58
2023-06-10T00:11:35.428Z,3.97
2023-06-10T00:14:08.176Z,3.55
2023-06-10T00:16:42.329Z,3.60
2023-06-10T00:19:10.889Z,3.47
2023-06-10T00:21:41.387Z,3.92
2023-06-10T00:24:13.349Z,3.92
2023-06-10T00:26:42.304Z,4.70
2023-06-10T00:29:13.430Z,3.70
2023-06-10T00:31:42.524Z,3.20
2023-06-10T00:34:14.601Z,4.07
2023-06-10T00:36:45.731Z,3.70
2023-06-10T00:39:16.500Z,4.25
2023-06-10T00:41:46.770Z,4.13
2023-06-10T00:44:15.260Z,3.47
2023-06-10T00:46:44.967Z,4.10
2023-06-10T00:49:13.456Z,3.95
2023-06-10T00:52:06.889Z,4.00
2023-06-10T00:54:35.757Z,3.83
2023-06-10T00:57:04.121Z,4.00
2023-06-10T00:59:34.081Z,3.80
2023-06-10T01:02:03.554Z,4.25
2023-06-10T01:04:31.938Z,4.30
2023-06-10T01:07:06.807Z,3.90
2023-06-10T01:09:39.642Z,4.20
2023-06-10T01:12:12.273Z,4.10
2023-06-10T01:14:45.917Z,4.10
2023-06-10T01:17:18.011Z,4.32
2023-06-10T01:19:56.095Z,3.92
2023-06-10T01:22:29.295Z,4.18
2023-06-10T01:24:59.848Z,4.13
2023-06-10T01:27:30.523Z,3.85
2023-06-10T01:30:02.904Z,4.10
2023-06-10T01:32:45.136Z,4.60
2023-06-10T01:35:14.171Z,4.03
2023-06-10T01:37:45.598Z,3.70
2023-06-10T01:40:15.868Z,3.85
2023-06-10T01:42:49.869Z,4.25
2023-06-10T01:45:18.397Z,3.80
2023-06-10T01:47:53.939Z,4.35
2023-06-10T01:50:22.317Z,4.43
2023-06-10T01:52:50.716Z,3.95
2023-06-10T01:55:19.281Z,4.32
2023-06-10T01:57:47.644Z,4.18
2023-06-10T02:00:20.081Z,4.22
2023-06-10T02:03:00.115Z,4.00
2023-06-10T02:05:30.039Z,3.97
2023-06-10T02:08:01.782Z,3.85
2023-06-10T02:10:35.514Z,4.47
2023-06-10T02:13:04.702Z,3.85
2023-06-10T02:15:36.069Z,4.50
2023-06-10T02:18:04.744Z,4.45
2023-06-10T02:20:33.199Z,4.03
2023-06-10T02:23:01.784Z,4.13
2023-06-10T02:25:32.100Z,4.78
2023-06-10T02:28:00.530Z,4.45
2023-06-10T02:30:30.250Z,4.20
2023-06-10T02:33:10.870Z,4.57
2023-06-10T02:35:40.647Z,4.35
2023-06-10T02:38:10.109Z,4.75
2023-06-10T02:40:45.938Z,4.32
2023-06-10T02:45:47.220Z,4.63
2023-06-10T02:48:19.006Z,4.38
2023-06-10T02:50:48.187Z,5.15
2023-06-10T02:53:25.703Z,4.70
2023-06-10T02:56:04.385Z,4.60
2023-06-10T02:58:36.595Z,5.00
2023-06-10T03:01:06.890Z,4.95
2023-06-10T03:03:47.746Z,5.30
2023-06-10T03:06:19.436Z,4.93
2023-06-10T03:08:50.598Z,4.55
2023-06-10T03:13:56.362Z,4.70
2023-06-10T03:16:28.856Z,4.53
2023-06-10T03:18:57.798Z,4.63
2023-06-10T03:21:26.796Z,4.75
2023-06-10T03:23:57.937Z,5.20
2023-06-10T03:26:30.063Z,5.05
2023-06-10T03:28:58.863Z,5.28
2023-06-10T03:31:27.912Z,4.88
2023-06-10T03:33:59.374Z,5.25
2023-06-10T03:36:31.283Z,4.80
2023-06-10T03:39:00.137Z,5.60
2023-06-10T03:41:34.046Z,4.60
2023-06-10T03:44:03.569Z,5.50
2023-06-10T03:46:35.280Z,5.00
2023-06-10T03:49:08.001Z,5.15
2023-06-10T03:51:38.356Z,5.35
2023-06-10T03:54:08.158Z,4.65
2023-06-10T03:56:41.338Z,5.40
2023-06-10T03:59:11.959Z,5.47
2023-06-10T04:01:42.230Z,5.10
2023-06-10T04:04:11.051Z,5.28
2023-06-10T04:06:39.554Z,5.88
2023-06-10T04:09:13.813Z,5.97
2023-06-10T04:11:42.774Z,5.32
2023-06-10T04:14:11.731Z,5.40
2023-06-10T04:16:42.020Z,5.72
2023-06-10T04:19:10.852Z,4.90
2023-06-10T04:21:40.436Z,5.28
2023-06-10T04:24:09.192Z,5.43
2023-06-10T04:26:38.464Z,5.53
2023-06-10T04:29:07.625Z,5.72
2023-06-10T04:31:36.520Z,5.55
2023-06-10T04:34:08.496Z,5.28
2023-06-10T04:36:36.923Z,5.50
2023-06-10T04:39:07.083Z,5.93
2023-06-10T04:41:39.696Z,5.18
2023-06-10T04:44:11.772Z,5.15
2023-06-10T04:46:40.355Z,5.63
2023-06-10T04:49:08.978Z,5.53
2023-06-10T04:51:38.981Z,5.45
2023-06-10T04:54:08.651Z,5.70
2023-06-10T04:56:40.427Z,5.43
2023-06-10T04:59:11.336Z,5.80
2023-06-10T05:01:40.126Z,5.88
2023-06-10T05:04:11.701Z,6.00
2023-06-10T05:06:42.391Z,5.70
2023-06-10T05:09:11.472Z,5.95
2023-06-10T05:11:39.784Z,6.05
2023-06-10T05:14:08.645Z,6.05
2023-06-10T05:16:37.078Z,5.47
2023-06-10T05:19:08.103Z,6.40
2023-06-10T05:21:37.914Z,5.82
2023-06-10T05:24:07.501Z,5.57
2023-06-10T05:26:38.407Z,5.40
2023-06-10T05:29:10.177Z,5.80
2023-06-10T05:31:38.886Z,5.10
2023-06-10T05:34:07.270Z,5.72
2023-06-10T05:36:39.715Z,5.43
2023-06-10T05:39:08.062Z,4.53
2023-06-10T05:41:36.798Z,5.20
2023-06-10T05:44:05.819Z,5.03
2023-06-10T05:46:35.232Z,4.97
2023-06-10T05:49:04.506Z,4.80
2023-06-10T05:51:33.791Z,5.28
2023-06-10T05:54:03.506Z,5.35
2023-06-10T05:56:34.710Z,5.18
2023-06-10T05:59:03.291Z,5.70
2023-06-10T06:01:32.294Z,5.30
2023-06-10T06:04:02.391Z,4.70
2023-06-10T06:06:31.947Z,4.75
2023-06-10T06:09:00.891Z,5.40
2023-06-10T06:11:33.953Z,5.23
2023-06-10T06:14:03.098Z,4.95
2023-06-10T06:16:35.098Z,4.55
2023-06-10T06:19:05.075Z,4.47
2023-06-10T06:21:36.206Z,4.40
2023-06-10T06:24:05.630Z,4.15
2023-06-10T06:26:35.715Z,4.25
2023-06-10T06:29:09.713Z,4.30
2023-06-10T06:31:40.585Z,4.25
2023-06-10T06:34:09.073Z,4.07
2023-06-10T06:36:37.829Z,4.30
2023-06-10T06:39:07.344Z,3.97
2023-06-10T06:41:40.088Z,4.20
2023-06-10T06:44:08.598Z,3.90
2023-06-10T06:46:40.876Z,3.80
2023-06-10T06:49:09.364Z,4.20
2023-06-10T06:51:40.124Z,4.28
2023-06-10T06:54:08.860Z,4.82
2023-06-10T06:56:39.360Z,4.07
2023-06-10T06:59:08.672Z,4.55
2023-06-10T07:01:37.077Z,3.85
2023-06-10T07:04:06.983Z,4.60
2023-06-10T07:06:38.572Z,4.40
2023-06-10T07:09:08.177Z,4.30
2023-06-10T07:11:37.689Z,4.07
2023-06-10T07:14:06.303Z,3.85
2023-06-10T07:16:35.381Z,4.10
2023-06-10T07:19:06.245Z,3.95
2023-06-10T07:21:37.274Z,3.95
2023-06-10T07:24:10.815Z,4.00
2023-06-10T07:26:40.082Z,4.10
2023-06-10T07:29:08.625Z,3.45
2023-06-10T07:31:37.892Z,3.53
2023-06-10T07:34:06.369Z,3.30
2023-06-10T07:36:35.719Z,3.42
2023-06-10T07:39:04.807Z,4.20
2023-06-10T07:41:37.684Z,3.88
2023-06-10T07:44:06.125Z,3.60
2023-06-10T07:46:37.093Z,3.58
2023-06-10T07:49:05.569Z,3.65
2023-06-10T07:51:34.130Z,3.83
2023-06-10T07:54:03.090Z,3.60
2023-06-10T07:56:37.330Z,3.85
2023-06-10T07:59:06.224Z,3.88
2023-06-10T08:01:36.968Z,3.38
2023-06-10T08:04:06.148Z,3.85
2023-06-10T08:06:34.655Z,3.50
2023-06-10T08:09:03.300Z,3.50
2023-06-10T08:11:34.659Z,3.60
2023-06-10T08:14:03.497Z,3.70
2023-06-10T08:16:34.978Z,3.65
2023-06-10T08:19:03.419Z,3.45
2023-06-10T08:21:32.624Z,3.80
2023-06-10T08:24:01.640Z,3.63
2023-06-10T08:26:31.522Z,3.65
2023-06-10T08:29:00.384Z,3.75
2023-06-10T08:31:28.819Z,3.88
2023-06-10T08:33:57.665Z,3.78
2023-06-10T08:36:26.406Z,3.13
2023-06-10T08:38:54.777Z,3.55
2023-06-10T08:41:27.830Z,3.33
2023-06-10T08:44:05.697Z,3.25
2023-06-10T08:46:35.437Z,3.35
2023-06-10T08:49:09.447Z,3.22
2023-06-10T08:51:38.561Z,3.40
2023-06-10T08:54:22.584Z,3.92
2023-06-10T08:56:53.125Z,3.08
2023-06-10T08:59:22.539Z,3.72
2023-06-10T09:01:52.165Z,3.42
2023-06-10T09:04:21.817Z,3.33
2023-06-10T09:06:51.188Z,3.15
2023-06-10T09:09:22.181Z,3.22
2023-06-10T09:11:50.530Z,3.65
2023-06-10T09:14:18.894Z,3.42
2023-06-10T09:16:49.438Z,3.53
2023-06-10T09:19:22.280Z,3.10
2023-06-10T09:21:50.894Z,3.30
2023-06-10T09:24:20.541Z,3.40
2023-06-10T09:26:52.537Z,3.08
2023-06-10T09:29:21.116Z,3.35
2023-06-10T09:31:52.029Z,3.53
2023-06-10T09:34:22.514Z,3.35
2023-06-10T09:36:53.879Z,3.20
2023-06-10T09:39:22.219Z,3.35
2023-06-10T09:41:51.171Z,3.63
2023-06-10T09:44:21.645Z,3.20
2023-06-10T09:49:49.392Z,2.97
2023-06-10T09:52:29.028Z,3.67
2023-06-10T09:55:02.874Z,3.08
2023-06-10T09:57:37.020Z,3.13
2023-06-10T10:00:07.311Z,2.75
2023-06-10T10:02:59.312Z,4.03
2023-06-10T10:05:32.095Z,2.90
2023-06-10T10:08:03.864Z,3.20
2023-06-10T10:10:32.362Z,3.50
2023-06-10T10:13:01.438Z,3.03
2023-06-10T10:15:45.895Z,3.38
2023-06-10T10:18:18.392Z,2.83
2023-06-10T10:20:53.315Z,2.97
2023-06-10T10:23:25.848Z,3.20
2023-06-10T10:25:56.793Z,3.00
2023-06-10T10:28:27.895Z,2.75
2023-06-10T10:31:00.847Z,2.80
2023-06-10T10:33:30.101Z,2.50
2023-06-10T10:35:59.656Z,3.30
2023-06-10T10:38:28.214Z,2.95
2023-06-10T10:41:00.895Z,3.22
2023-06-10T10:43:31.688Z,2.95
2023-06-10T10:46:01.128Z,2.92
2023-06-10T10:48:36.747Z,3.13
2023-06-10T10:51:06.077Z,3.00
2023-06-10T10:53:35.308Z,3.05
2023-06-10T10:56:09.185Z,2.55
2023-06-10T10:58:38.083Z,2.95
2023-06-10T11:01:13.810Z,3.17
2023-06-10T11:03:48.120Z,2.72
2023-06-10T11:06:17.533Z,2.95
2023-06-10T11:08:48.050Z,2.60
2023-06-10T11:11:20.085Z,3.28
2023-06-10T11:14:22.565Z,2.85
2023-06-10T11:16:51.132Z,3.10
2023-06-10T11:19:36.087Z,3.22
2023-06-10T11:22:10.986Z,2.88
2023-06-10T11:24:39.619Z,2.97
2023-06-10T11:27:21.085Z,3.15
2023-06-10T11:30:04.723Z,3.00
2023-06-10T11:32:38.270Z,2.80
2023-06-10T11:35:07.221Z,3.17
2023-06-10T11:37:38.069Z,2.95
2023-06-10T11:40:10.018Z,3.15
2023-06-10T11:42:50.700Z,3.20
2023-06-10T11:45:20.376Z,3.08
2023-06-10T11:47:59.825Z,2.88
2023-06-10T11:50:35.587Z,3.30
2023-06-10T11:53:05.001Z,2.60
2023-06-10T11:55:45.365Z,3.00
2023-06-10T11:58:24.104Z,3.30
2023-06-10T12:00:57.347Z,3.03
2023-06-10T12:03:39.804Z,3.00
2023-06-10T12:06:10.804Z,3.00
2023-06-10T12:08:45.534Z,3.45
2023-06-10T12:11:14.300Z,2.90
2023-06-10T12:13:50.959Z,2.88
2023-06-10T12:16:22.480Z,2.90
2023-06-10T12:21:27.468Z,3.20
2023-06-10T12:24:07.388Z,3.00
2023-06-10T12:26:40.090Z,2.90
2023-06-10T12:29:17.829Z,3.15
2023-06-10T12:31:59.824Z,3.13
2023-06-10T12:34:38.471Z,2.90
2023-06-10T12:37:08.237Z,2.83
2023-06-10T12:39:36.761Z,3.53
2023-06-10T12:42:07.021Z,2.97
2023-06-10T12:44:40.593Z,2.80
2023-06-10T12:47:14.422Z,3.00
2023-06-10T12:49:45.192Z,3.45
2023-06-10T12:52:16.576Z,3.35
2023-06-10T12:54:45.135Z,3.20
2023-06-10T12:57:16.128Z,3.17
2023-06-10T12:59:51.158Z,3.33
2023-06-10T13:02:21.982Z,3.10
2023-06-10T13:04:50.613Z,2.95
2023-06-10T13:07:18.962Z,3.60
2023-06-10T13:09:50.009Z,2.88
2023-06-10T13:12:24.961Z,3.55
2023-06-10T13:15:02.629Z,3.35
2023-06-10T13:17:46.757Z,3.40
2023-06-10T13:20:18.671Z,2.90
2023-06-10T13:22:50.637Z,3.42
2023-06-10T13:25:19.190Z,2.60
2023-06-10T13:27:50.090Z,2.95
2023-06-10T13:30:18.745Z,3.15
2023-06-10T13:33:05.155Z,3.00
2023-06-10T13:35:38.422Z,2.97
2023-06-10T13:38:09.905Z,3.60
2023-06-10T13:40:38.428Z,2.90
2023-06-10T13:43:07.069Z,3.08
2023-06-10T13:45:40.278Z,3.10
2023-06-10T13:48:09.480Z,3.28
2023-06-10T13:50:37.927Z,2.95
2023-06-10T13:53:06.439Z,3.00
2023-06-10T13:55:39.967Z,3.00
2023-06-10T13:58:08.661Z,2.90
2023-06-10T14:00:37.719Z,2.83
2023-06-10T14:03:23.995Z,3.20
2023-06-10T14:05:52.683Z,2.88
2023-06-10T14:08:21.848Z,2.75
2023-06-10T14:10:51.664Z,3.17
2023-06-10T14:13:20.604Z,3.38
2023-06-10T14:15:49.844Z,3.15
2023-06-10T14:18:19.046Z,3.25
2023-06-10T14:20:47.627Z,2.90
2023-06-10T14:23:18.394Z,2.95
2023-06-10T14:25:49.631Z,2.90
2023-06-10T14:28:18.453Z,3.22
2023-06-10T14:30:49.464Z,3.00
2023-06-10T14:33:21.207Z,2.72
2023-06-10T14:35:50.019Z,2.92
2023-06-10T14:38:19.117Z,2.70
2023-06-10T14:40:47.634Z,3.00
2023-06-10T14:43:16.327Z,3.15
2023-06-10T14:45:45.976Z,2.35
2023-06-10T14:48:17.727Z,3.55
2023-06-10T14:50:51.752Z,2.75
2023-06-10T14:53:20.404Z,3.13
2023-06-10T14:55:49.956Z,3.13
2023-06-10T14:58:22.111Z,3.30
2023-06-10T15:00:53.720Z,2.65
2023-06-10T15:03:34.482Z,2.75
2023-06-10T15:06:03.412Z,2.72
2023-06-10T15:08:32.347Z,3.20
2023-06-10T15:11:02.324Z,3.20
2023-06-10T15:13:32.174Z,2.35
2023-06-10T15:16:04.298Z,3.10
2023-06-10T15:18:33.441Z,2.90
2023-06-10T15:21:02.185Z,2.83
2023-06-10T15:23:33.937Z,2.97
2023-06-10T15:26:02.231Z,2.67
2023-06-10T15:28:31.215Z,2.80
2023-06-10T15:31:00.351Z,2.80
2023-06-10T15:33:41.070Z,3.35
2023-06-10T15:36:09.572Z,2.63
2023-06-10T15:38:38.457Z,2.92
2023-06-10T15:41:07.350Z,3.00
2023-06-10T15:43:39.297Z,2.95
2023-06-10T15:46:10.251Z,2.80
2023-06-10T15:48:40.955Z,3.00
2023-06-10T15:51:09.621Z,3.13
2023-06-10T15:53:40.167Z,2.58
2023-06-10T15:56:11.257Z,3.45
2023-06-10T15:58:40.316Z,3.40
2023-06-10T16:01:10.359Z,2.72
2023-06-10T16:03:48.250Z,3.13
2023-06-10T16:06:17.489Z,2.67
2023-06-10T16:08:48.258Z,3.22
2023-06-10T16:11:16.765Z,2.80
2023-06-10T16:13:45.168Z,2.92
2023-06-10T16:16:16.343Z,2.67
2023-06-10T16:18:44.739Z,2.97
2023-06-10T16:21:13.656Z,2.90
2023-06-10T16:23:42.602Z,2.67
2023-06-10T16:26:11.833Z,2.72
2023-06-10T16:28:40.646Z,2.63
2023-06-10T16:31:09.321Z,3.30
2023-06-10T16:33:40.827Z,2.72
2023-06-10T16:36:14.165Z,2.83
2023-06-10T16:38:43.096Z,2.70
2023-06-10T16:41:11.446Z,2.67
2023-06-10T16:43:39.736Z,2.83
2023-06-10T16:46:10.356Z,2.67
2023-06-10T16:48:39.506Z,2.50
2023-06-10T16:51:08.888Z,2.60
2023-06-10T16:53:37.622Z,2.65
2023-06-10T16:56:06.004Z,2.80
2023-06-10T16:58:34.930Z,2.90
2023-06-10T17:01:08.165Z,3.10
2023-06-10T17:03:41.512Z,2.67
2023-06-10T17:06:12.103Z,2.63
2023-06-10T17:08:41.252Z,2.78
2023-06-10T17:11:10.286Z,2.97
2023-06-10T17:13:41.708Z,2.75
2023-06-10T17:16:10.745Z,2.78
2023-06-10T17:18:39.932Z,2.72
2023-06-10T17:21:14.951Z,3.13
2023-06-10T17:23:43.340Z,2.80
2023-06-10T17:26:12.166Z,2.78
2023-06-10T17:28:41.043Z,2.50
2023-06-10T17:31:12.565Z,2.42
2023-06-10T17:33:44.639Z,2.45
2023-06-10T17:36:13.363Z,2.42
2023-06-10T17:38:42.064Z,2.70
2023-06-10T17:41:10.573Z,2.67
2023-06-10T17:43:39.282Z,2.60
2023-06-10T17:46:08.244Z,2.80
2023-06-10T17:48:36.667Z,3.13
2023-06-10T17:51:07.121Z,2.83
2023-06-10T17:53:38.695Z,2.50
2023-06-10T17:56:07.151Z,2.92
2023-06-10T17:58:35.639Z,2.40
2023-06-10T18:01:06.715Z,2.78
2023-06-10T18:03:41.195Z,2.65
2023-06-10T18:06:12.113Z,2.72
2023-06-10T18:08:43.367Z,2.55
2023-06-10T18:11:11.900Z,3.13
2023-06-10T18:13:40.390Z,4.05
2023-06-10T18:16:11.040Z,2.88
2023-06-10T18:18:41.156Z,3.15
2023-06-10T18:21:09.470Z,2.58
2023-06-10T18:23:38.104Z,3.13
2023-06-10T18:26:06.597Z,2.75
2023-06-10T18:28:35.012Z,2.85
2023-06-10T18:31:04.906Z,3.35
2023-06-10T18:33:42.076Z,3.10
2023-06-10T18:36:10.493Z,3.42
2023-06-10T18:38:41.517Z,3.28
2023-06-10T18:41:12.352Z,2.85
2023-06-10T18:43:42.215Z,2.65
2023-06-10T18:46:10.669Z,3.17
2023-06-10T18:48:42.468Z,2.90
2023-06-10T18:51:13.051Z,3.30
2023-06-10T18:53:42.072Z,3.65
2023-06-10T18:56:13.622Z,3.20
2023-06-10T18:58:44.475Z,3.20
2023-06-10T19:01:13.295Z,3.47
2023-06-10T19:03:42.017Z,3.00
2023-06-10T19:06:13.600Z,3.40
2023-06-10T19:08:45.977Z,3.42
2023-06-10T19:11:15.030Z,3.45
2023-06-10T19:13:43.636Z,3.20
2023-06-10T19:16:12.015Z,3.20
2023-06-10T19:18:41.803Z,3.78
2023-06-10T19:21:10.310Z,3.30
2023-06-10T19:23:41.257Z,3.40
2023-06-10T19:26:09.934Z,3.90
2023-06-10T19:28:38.289Z,4.57
2023-06-10T19:31:07.685Z,3.85
2023-06-10T19:33:36.053Z,4.28
2023-06-10T19:36:04.852Z,4.28
2023-06-10T19:38:33.438Z,3.40
2023-06-10T19:41:02.920Z,3.53
2023-06-10T19:43:32.049Z,3.08
2023-06-10T19:46:02.536Z,3.28
2023-06-10T19:48:33.139Z,3.17
2023-06-10T19:51:02.920Z,3.22
2023-06-10T19:53:33.226Z,3.30
2023-06-10T19:56:01.694Z,3.13
2023-06-10T19:58:32.274Z,3.25
2023-06-10T20:01:01.660Z,3.40
2023-06-10T20:03:33.389Z,3.10
2023-06-10T20:06:03.891Z,3.08
2023-06-10T20:08:32.835Z,3.17
2023-06-10T20:11:01.281Z,3.22
2023-06-10T20:13:31.483Z,3.28
2023-06-10T20:16:00.017Z,3.00
2023-06-10T20:18:28.610Z,2.92
2023-06-10T20:21:00.687Z,3.60
2023-06-10T20:23:35.562Z,3.67
2023-06-10T20:26:03.927Z,3.08
2023-06-10T20:28:36.018Z,3.20
2023-06-10T20:31:07.835Z,3.35
2023-06-10T20:33:36.442Z,3.80
2023-06-10T20:36:07.329Z,3.22
2023-06-10T20:38:36.210Z,3.30
2023-06-10T20:41:04.854Z,3.33
2023-06-10T20:43:33.937Z,3.67
2023-06-10T20:46:06.364Z,3.40
2023-06-10T20:48:35.459Z,3.70
2023-06-10T20:51:04.837Z,2.90
2023-06-10T20:53:33.144Z,3.10
2023-06-10T20:56:02.246Z,3.35
2023-06-10T20:58:34.253Z,3.55
2023-06-10T21:01:03.419Z,3.17
2023-06-10T21:03:42.336Z,2.90
2023-06-10T21:06:11.929Z,4.40
2023-06-10T21:08:43.111Z,3.42
2023-06-10T21:11:11.465Z,3.80
2023-06-10T21:13:40.135Z,3.97
2023-06-10T21:16:09.408Z,4.03
2023-06-10T21:18:38.348Z,3.78
2023-06-10T21:21:10.216Z,3.90
2023-06-10T21:23:44.750Z,3.50
2023-06-10T21:26:13.294Z,3.72
2023-06-10T21:28:46.070Z,3.63
2023-06-10T21:31:14.414Z,3.40
2023-06-10T21:33:50.523Z,3.63
2023-06-10T21:36:19.616Z,3.30
2023-06-10T21:38:51.763Z,3.58
2023-06-10T21:41:21.496Z,3.40
2023-06-10T21:43:52.828Z,3.58
2023-06-10T21:46:23.662Z,3.67
2023-06-10T21:48:57.671Z,3.67
2023-06-10T21:51:26.940Z,3.92
2023-06-10T21:54:01.962Z,3.90
2023-06-10T21:56:34.705Z,3.85
2023-06-10T21:59:03.245Z,3.70
2023-06-10T22:01:36.451Z,3.47
2023-06-10T22:04:05.575Z,3.67
2023-06-10T22:06:36.184Z,4.03
2023-06-10T22:09:05.522Z,3.70
2023-06-10T22:11:37.243Z,4.10
2023-06-10T22:14:05.815Z,3.97
2023-06-10T22:16:36.869Z,3.85
2023-06-10T22:19:06.027Z,3.70
2023-06-10T22:21:35.321Z,4.03
2023-06-10T22:24:06.342Z,4.30
2023-06-10T22:26:52.047Z,4.00
2023-06-10T22:29:24.548Z,3.88
2023-06-10T22:31:52.948Z,3.78
2023-06-10T22:34:24.778Z,3.88
2023-06-10T22:36:53.292Z,4.18
2023-06-10T22:39:21.515Z,4.35
2023-06-10T22:41:50.387Z,3.88
2023-06-10T22:44:21.678Z,3.35
2023-06-10T22:46:51.088Z,3.85
2023-06-10T22:49:20.601Z,3.88
2023-06-10T22:51:51.217Z,3.80
2023-06-10T22:54:19.583Z,3.58
2023-06-10T22:56:48.979Z,3.88
2023-06-10T22:59:20.080Z,3.90
2023-06-10T23:01:49.074Z,4.40
2023-06-10T23:04:17.842Z,3.70
2023-06-10T23:06:46.783Z,4.28
2023-06-10T23:09:15.677Z,4.22
2023-06-10T23:11:48.717Z,3.78
2023-06-10T23:14:18.058Z,3.95
2023-06-10T23:16:47.642Z,3.78
2023-06-10T23:19:19.305Z,3.58
2023-06-10T23:21:54.122Z,4.53
2023-06-10T23:24:30.616Z,4.55
2023-06-10T23:27:01.845Z,3.90
2023-06-10T23:29:33.934Z,3.72
2023-06-10T23:32:06.691Z,4.13
2023-06-10T23:34:35.711Z,4.07
2023-06-10T23:37:05.453Z,3.88
2023-06-10T23:39:33.853Z,4.10
2023-06-10T23:42:02.190Z,4.18
2023-06-10T23:44:34.086Z,3.78
2023-06-10T23:47:03.161Z,3.33
2023-06-10T23:49:32.582Z,3.67
2023-06-10T23:52:01.271Z,3.50
2023-06-10T23:54:30.606Z,3.53
2023-06-10T23:57:03.446Z,4.05
2023-06-10T23:59:33.500Z,3.60
